e787 at 2026-08-31
00:13:53 UTCDEBUG [2026-08-31 00:13:53] ----- wrcc_downloadData() -----
TRACE [2026-08-31 00:13:53] Downloading WRCC data for unitID e787 ...
DEBUG [2026-08-31 00:13:54] ----- wrcc_parseData() -----
DEBUG [2026-08-31 00:13:54] ----- wrcc_identifyDataFormat() -----
WARN [2026-08-31 00:13:54] More than one monitor type detected: 769, 0, 384, 768
DEBUG [2026-08-31 00:13:54] ----- addClustering() -----
DEBUG [2026-08-31 00:13:54] ----- wrcc_qualityControl() -----
TRACE [2026-08-31 00:13:54] Applying EBAM QC rules ...
DEBUG [2026-08-31 00:13:54] ----- wrcc_EBAMQualityControl() -----
TRACE [2026-08-31 00:13:54] Flagging 3 rows with invalid Type information
TRACE [2026-08-31 00:13:54] Bad Types: 384, 768, 769
TRACE [2026-08-31 00:13:55] Flow has 0 missing or out of range values
TRACE [2026-08-31 00:13:55] AT has 0 missing or out of range values
TRACE [2026-08-31 00:13:55] RHi has 0 missing or out of range values
TRACE [2026-08-31 00:13:55] Conc has 3 missing or out of range values
TRACE [2026-08-31 00:13:55] Bad Conc values: 30004, 50004, 93333
TRACE [2026-08-31 00:13:55] datetime has 0 missing or out of range values
TRACE [2026-08-31 00:13:55] Flagging 3 rows because of QC logic
TRACE [2026-08-31 00:13:55] Retaining 68 rows of measurements; 6 bad rows flagged
DateTime,GPSLat,GPSLon,Type,SerialNumber,ConcRT,Misc1,AvAirFlw,AvAirTemp,RelHumidity,Misc2,SensorIntAT,SensorIntRH,WindSpeed,WindDir,BatteryVoltage,CO,monitorName,monitorType,QCFlag_anyBad,QCFlag_reasonCode,QCFlag_badLon,QCFlag_badLat,QCFlag_badType,QCFlag_badFlow,QCFlag_badAT,QCFlag_badRHi,QCFlag_badConcHr,QCFlag_badDateAndTime,QCFlag_duplicateHr,datetime,clusterLon,clusterLat,clusterID
2608272100,44.7421,-118.197937,769,11297,NA,-14.99,5.1,29,23,NA,29.7,23,2,213,11.8,0,Smoke RMK 410 (EBAM #787),EBAM,TRUE,badType,FALSE,FALSE,TRUE,FALSE,FALSE,FALSE,FALSE,FALSE,FALSE,2026-08-27T21:00:00Z,-118.197884,44.742107,1
2608272200,44.7421,-118.197937,0,11297,93333,7,16.6,30.4,20,NA,33.9,16,1.9,255,11.7,0,Smoke RMK 410 (EBAM #787),EBAM,TRUE,badConcHr,FALSE,FALSE,FALSE,FALSE,FALSE,FALSE,TRUE,FALSE,FALSE,2026-08-27T22:00:00Z,-118.197884,44.742107,1
2608272300,44.7421,-118.197937,0,11297,11,12,16.6,30.8,20,NA,35.5,16,1.7,255,11.7,0,Smoke RMK 410 (EBAM #787),EBAM,FALSE,NA,FALSE,FALSE,FALSE,FALSE,FALSE,FALSE,FALSE,FALSE,FALSE,2026-08-27T23:00:00Z,-118.197884,44.742107,1
2608280000,44.7421,-118.197937,0,11297,11,16,16.6,29.6,22,NA,33.4,17,1.5,233,11.7,0,Smoke RMK 410 (EBAM #787),EBAM,FALSE,NA,FALSE,FALSE,FALSE,FALSE,FALSE,FALSE,FALSE,FALSE,FALSE,2026-08-28T00:00:00Z,-118.197884,44.742107,1
2608280100,44.7421,-118.197937,0,11297,10,4,16.6,29,22,NA,31.8,18,1.7,226,11.7,0,Smoke RMK 410 (EBAM #787),EBAM,FALSE,NA,FALSE,FALSE,FALSE,FALSE,FALSE,FALSE,FALSE,FALSE,FALSE,2026-08-28T01:00:00Z,-118.197884,44.742107,1
2608280200,44.7421,-118.197937,0,11297,1,6,16.6,28.3,22,NA,30.8,18,1.7,193,11.7,0,Smoke RMK 410 (EBAM #787),EBAM,FALSE,NA,FALSE,FALSE,FALSE,FALSE,FALSE,FALSE,FALSE,FALSE,FALSE,2026-08-28T02:00:00Z,-118.197884,44.742107,1
2608280300,44.7421,-118.197937,0,11297,5,9,16.6,26,30,NA,29,23,1,320,11.7,0,Smoke RMK 410 (EBAM #787),EBAM,FALSE,NA,FALSE,FALSE,FALSE,FALSE,FALSE,FALSE,FALSE,FALSE,FALSE,2026-08-28T03:00:00Z,-118.197884,44.742107,1
2608280400,44.7421,-118.197937,0,11297,11,18,16.6,23.3,42,NA,26.4,31,0.8,3,11.7,0,Smoke RMK 410 (EBAM #787),EBAM,FALSE,NA,FALSE,FALSE,FALSE,FALSE,FALSE,FALSE,FALSE,FALSE,FALSE,2026-08-28T04:00:00Z,-118.197884,44.742107,1
2608280500,44.7421,-118.197937,0,11297,25,26,16.6,20.5,48,NA,24,34,0.8,358,11.7,0,Smoke RMK 410 (EBAM #787),EBAM,FALSE,NA,FALSE,FALSE,FALSE,FALSE,FALSE,FALSE,FALSE,FALSE,FALSE,2026-08-28T05:00:00Z,-118.197884,44.742107,1
2608280600,44.7421,-118.197937,0,11297,31,29,16.6,18.1,54,NA,21.5,39,0.7,2,11.7,0,Smoke RMK 410 (EBAM #787),EBAM,FALSE,NA,FALSE,FALSE,FALSE,FALSE,FALSE,FALSE,FALSE,FALSE,FALSE,2026-08-28T06:00:00Z,-118.197884,44.742107,1
2608280700,44.7421,-118.197937,0,11297,55,86,16.6,16.6,57,NA,19.7,41,0.8,331,11.7,0,Smoke RMK 410 (EBAM #787),EBAM,FALSE,NA,FALSE,FALSE,FALSE,FALSE,FALSE,FALSE,FALSE,FALSE,FALSE,2026-08-28T07:00:00Z,-118.197884,44.742107,1
2608280800,44.7421,-118.197937,0,11297,75,85,16.6,15.2,61,NA,18.3,45,0.6,334,11.7,0,Smoke RMK 410 (EBAM #787),EBAM,FALSE,NA,FALSE,FALSE,FALSE,FALSE,FALSE,FALSE,FALSE,FALSE,FALSE,2026-08-28T08:00:00Z,-118.197884,44.742107,1
2608280900,44.7421,-118.197937,0,11297,85,96,16.6,14,65,NA,17,47,0.8,321,11.7,0,Smoke RMK 410 (EBAM #787),EBAM,FALSE,NA,FALSE,FALSE,FALSE,FALSE,FALSE,FALSE,FALSE,FALSE,FALSE,2026-08-28T09:00:00Z,-118.197884,44.742107,1
2608281000,44.7421,-118.197937,0,11297,97,97,16.6,13.1,68,NA,16.3,49,0.7,323,11.7,0,Smoke RMK 410 (EBAM #787),EBAM,FALSE,NA,FALSE,FALSE,FALSE,FALSE,FALSE,FALSE,FALSE,FALSE,FALSE,2026-08-28T10:00:00Z,-118.197884,44.742107,1
2608281100,44.7421,-118.197937,0,11297,92,108,16.6,12.5,70,NA,16,50,0.9,315,11.6,0,Smoke RMK 410 (EBAM #787),EBAM,FALSE,NA,FALSE,FALSE,FALSE,FALSE,FALSE,FALSE,FALSE,FALSE,FALSE,2026-08-28T11:00:00Z,-118.197884,44.742107,1
2608281200,44.7421,-118.197937,0,11297,103,126,16.6,12.2,72,NA,16,50,1,327,11.6,0,Smoke RMK 410 (EBAM #787),EBAM,FALSE,NA,FALSE,FALSE,FALSE,FALSE,FALSE,FALSE,FALSE,FALSE,FALSE,2026-08-28T12:00:00Z,-118.197884,44.742107,1
2608281300,44.7421,-118.197937,0,11297,160,209,16.6,11.5,74,NA,16.2,49,0.6,307,11.6,0,Smoke RMK 410 (EBAM #787),EBAM,FALSE,NA,FALSE,FALSE,FALSE,FALSE,FALSE,FALSE,FALSE,FALSE,FALSE,2026-08-28T13:00:00Z,-118.197884,44.742107,1
2608281400,44.7421,-118.197937,0,11297,187,191,16.6,10.6,76,NA,16.2,48,0.6,303,11.6,0,Smoke RMK 410 (EBAM #787),EBAM,FALSE,NA,FALSE,FALSE,FALSE,FALSE,FALSE,FALSE,FALSE,FALSE,FALSE,2026-08-28T14:00:00Z,-118.197884,44.742107,1
2608281500,44.7421,-118.197937,0,11297,228,295,16.6,10.8,76,NA,16.4,47,0.6,287,11.6,0,Smoke RMK 410 (EBAM #787),EBAM,FALSE,NA,FALSE,FALSE,FALSE,FALSE,FALSE,FALSE,FALSE,FALSE,FALSE,2026-08-28T15:00:00Z,-118.197884,44.742107,1
2608281600,44.7421,-118.197937,0,11297,343,416,16.6,13.1,70,NA,18.1,44,0.6,210,11.6,0,Smoke RMK 410 (EBAM #787),EBAM,FALSE,NA,FALSE,FALSE,FALSE,FALSE,FALSE,FALSE,FALSE,FALSE,FALSE,2026-08-28T16:00:00Z,-118.197884,44.742107,1
2608281700,44.7421,-118.197937,0,11297,266,162,16.6,18.1,57,NA,23,36,1.2,175,11.6,0,Smoke RMK 410 (EBAM #787),EBAM,FALSE,NA,FALSE,FALSE,FALSE,FALSE,FALSE,FALSE,FALSE,FALSE,FALSE,2026-08-28T17:00:00Z,-118.197884,44.742107,1
2608281800,44.7421,-118.197937,0,11297,157,145,16.6,22.5,43,NA,26,30,1.9,160,11.6,0,Smoke RMK 410 (EBAM #787),EBAM,FALSE,NA,FALSE,FALSE,FALSE,FALSE,FALSE,FALSE,FALSE,FALSE,FALSE,2026-08-28T18:00:00Z,-118.197884,44.742107,1
2608281900,44.7421,-118.197937,0,11297,69,10,16.6,26.3,30,NA,28.7,23,2,193,11.7,0,Smoke RMK 410 (EBAM #787),EBAM,FALSE,NA,FALSE,FALSE,FALSE,FALSE,FALSE,FALSE,FALSE,FALSE,FALSE,2026-08-28T19:00:00Z,-118.197884,44.742107,1
2608282100,44.742065,-118.197891,384,11297,NA,-2.999,15,29.1,26,NA,34.2,19,1.7,257,11.7,0,Smoke RMK 410 (EBAM #787),EBAM,TRUE,badType,FALSE,FALSE,TRUE,FALSE,FALSE,FALSE,FALSE,FALSE,FALSE,2026-08-28T21:00:00Z,-118.197884,44.742107,1
2608282200,44.742065,-118.197891,0,11297,30004,7,16.6,29.5,25,NA,35.4,18,2.7,191,11.7,0,Smoke RMK 410 (EBAM #787),EBAM,TRUE,badConcHr,FALSE,FALSE,FALSE,FALSE,FALSE,FALSE,TRUE,FALSE,FALSE,2026-08-28T22:00:00Z,-118.197884,44.742107,1
2608282300,44.742065,-118.197891,0,11297,8,13,16.6,28.9,25,NA,34.3,18,2.4,195,11.7,0,Smoke RMK 410 (EBAM #787),EBAM,FALSE,NA,FALSE,FALSE,FALSE,FALSE,FALSE,FALSE,FALSE,FALSE,FALSE,2026-08-28T23:00:00Z,-118.197884,44.742107,1
2608290000,44.742065,-118.197891,0,11297,10,4,16.6,28.1,26,NA,31.4,20,2.9,154,11.7,0,Smoke RMK 410 (EBAM #787),EBAM,FALSE,NA,FALSE,FALSE,FALSE,FALSE,FALSE,FALSE,FALSE,FALSE,FALSE,2026-08-29T00:00:00Z,-118.197884,44.742107,1
2608290100,44.742065,-118.197891,0,11297,6,7,16.6,27.5,26,NA,30.1,21,2.5,165,11.7,0,Smoke RMK 410 (EBAM #787),EBAM,FALSE,NA,FALSE,FALSE,FALSE,FALSE,FALSE,FALSE,FALSE,FALSE,FALSE,2026-08-29T01:00:00Z,-118.197884,44.742107,1
2608290200,44.742065,-118.197891,0,11297,10,8,16.6,27.4,28,NA,29.8,22,0.8,287,11.7,0,Smoke RMK 410 (EBAM #787),EBAM,FALSE,NA,FALSE,FALSE,FALSE,FALSE,FALSE,FALSE,FALSE,FALSE,FALSE,2026-08-29T02:00:00Z,-118.197884,44.742107,1
2608290300,44.742065,-118.197891,0,11297,7,12,16.6,25.2,33,NA,28.4,25,0.6,308,11.7,0,Smoke RMK 410 (EBAM #787),EBAM,FALSE,NA,FALSE,FALSE,FALSE,FALSE,FALSE,FALSE,FALSE,FALSE,FALSE,2026-08-29T03:00:00Z,-118.197884,44.742107,1
2608290400,44.742065,-118.197891,0,11297,41,66,16.6,22.2,38,NA,26,27,0.7,0,11.7,0,Smoke RMK 410 (EBAM #787),EBAM,FALSE,NA,FALSE,FALSE,FALSE,FALSE,FALSE,FALSE,FALSE,FALSE,FALSE,2026-08-29T04:00:00Z,-118.197884,44.742107,1
2608290500,44.742065,-118.197891,0,11297,47,30,16.6,19.6,43,NA,23.2,31,0.8,358,11.7,0,Smoke RMK 410 (EBAM #787),EBAM,FALSE,NA,FALSE,FALSE,FALSE,FALSE,FALSE,FALSE,FALSE,FALSE,FALSE,2026-08-29T05:00:00Z,-118.197884,44.742107,1
2608290600,44.742065,-118.197891,0,11297,47,88,16.6,17.8,47,NA,21,34,0.8,331,11.7,0,Smoke RMK 410 (EBAM #787),EBAM,FALSE,NA,FALSE,FALSE,FALSE,FALSE,FALSE,FALSE,FALSE,FALSE,FALSE,2026-08-29T06:00:00Z,-118.197884,44.742107,1
2608290700,44.742065,-118.197891,0,11297,105,137,16.6,16.3,50,NA,19.5,36,0.8,319,11.7,0,Smoke RMK 410 (EBAM #787),EBAM,FALSE,NA,FALSE,FALSE,FALSE,FALSE,FALSE,FALSE,FALSE,FALSE,FALSE,2026-08-29T07:00:00Z,-118.197884,44.742107,1
2608290800,44.742065,-118.197891,0,11297,144,159,16.6,15.3,53,NA,18.3,38,0.7,319,11.7,0,Smoke RMK 410 (EBAM #787),EBAM,FALSE,NA,FALSE,FALSE,FALSE,FALSE,FALSE,FALSE,FALSE,FALSE,FALSE,2026-08-29T08:00:00Z,-118.197884,44.742107,1
2608290900,44.742065,-118.197891,0,11297,118,97,16.6,14.3,55,NA,17.2,40,0.8,331,11.7,0,Smoke RMK 410 (EBAM #787),EBAM,FALSE,NA,FALSE,FALSE,FALSE,FALSE,FALSE,FALSE,FALSE,FALSE,FALSE,2026-08-29T09:00:00Z,-118.197884,44.742107,1
2608291000,44.742065,-118.197891,0,11297,102,119,16.6,13.3,58,NA,16.2,42,0.7,328,11.7,0,Smoke RMK 410 (EBAM #787),EBAM,FALSE,NA,FALSE,FALSE,FALSE,FALSE,FALSE,FALSE,FALSE,FALSE,FALSE,2026-08-29T10:00:00Z,-118.197884,44.742107,1
2608291100,44.742065,-118.197891,0,11297,115,104,16.6,12.5,61,NA,15.4,44,0.7,307,11.7,0,Smoke RMK 410 (EBAM #787),EBAM,FALSE,NA,FALSE,FALSE,FALSE,FALSE,FALSE,FALSE,FALSE,FALSE,FALSE,2026-08-29T11:00:00Z,-118.197884,44.742107,1
2608291200,44.742065,-118.197891,0,11297,77,77,16.6,11.9,62,NA,14.8,46,0.7,313,11.7,0,Smoke RMK 410 (EBAM #787),EBAM,FALSE,NA,FALSE,FALSE,FALSE,FALSE,FALSE,FALSE,FALSE,FALSE,FALSE,2026-08-29T12:00:00Z,-118.197884,44.742107,1
2608291300,44.742065,-118.197891,0,11297,101,128,16.6,10.9,65,NA,13.9,47,0.7,325,11.7,0,Smoke RMK 410 (EBAM #787),EBAM,FALSE,NA,FALSE,FALSE,FALSE,FALSE,FALSE,FALSE,FALSE,FALSE,FALSE,2026-08-29T13:00:00Z,-118.197884,44.742107,1
2608291400,44.742065,-118.197891,0,11297,111,128,16.6,10.2,66,NA,13.3,48,0.7,325,11.7,0,Smoke RMK 410 (EBAM #787),EBAM,FALSE,NA,FALSE,FALSE,FALSE,FALSE,FALSE,FALSE,FALSE,FALSE,FALSE,2026-08-29T14:00:00Z,-118.197884,44.742107,1
2608291500,44.742065,-118.197891,0,11297,112,116,16.6,11.1,65,NA,13.8,47,0.5,297,11.6,0,Smoke RMK 410 (EBAM #787),EBAM,FALSE,NA,FALSE,FALSE,FALSE,FALSE,FALSE,FALSE,FALSE,FALSE,FALSE,2026-08-29T15:00:00Z,-118.197884,44.742107,1
2608291600,44.742065,-118.197891,0,11297,91,40,16.6,15.9,51,NA,17.3,40,0.7,307,11.7,0,Smoke RMK 410 (EBAM #787),EBAM,FALSE,NA,FALSE,FALSE,FALSE,FALSE,FALSE,FALSE,FALSE,FALSE,FALSE,2026-08-29T16:00:00Z,-118.197884,44.742107,1
2608291700,44.742065,-118.197891,0,11297,25,14,16.6,18.9,42,NA,22.5,30,1.1,307,11.7,0,Smoke RMK 410 (EBAM #787),EBAM,FALSE,NA,FALSE,FALSE,FALSE,FALSE,FALSE,FALSE,FALSE,FALSE,FALSE,2026-08-29T17:00:00Z,-118.197884,44.742107,1
2608291800,44.742065,-118.197891,0,11297,7,8,16.6,19.2,42,NA,23.5,29,1.1,304,11.7,0,Smoke RMK 410 (EBAM #787),EBAM,FALSE,NA,FALSE,FALSE,FALSE,FALSE,FALSE,FALSE,FALSE,FALSE,FALSE,2026-08-29T18:00:00Z,-118.197884,44.742107,1
2608291900,44.742065,-118.197891,0,11297,8,5,16.6,20.3,38,NA,23.8,28,1.3,310,11.7,0,Smoke RMK 410 (EBAM #787),EBAM,FALSE,NA,FALSE,FALSE,FALSE,FALSE,FALSE,FALSE,FALSE,FALSE,FALSE,2026-08-29T19:00:00Z,-118.197884,44.742107,1
2608292000,44.742275,-118.197685,0,11297,7,6,16.6,21.1,36,NA,25.1,26,1.7,300,11.7,0,Smoke RMK 410 (EBAM #787),EBAM,FALSE,NA,FALSE,FALSE,FALSE,FALSE,FALSE,FALSE,FALSE,FALSE,FALSE,2026-08-29T20:00:00Z,-118.197884,44.742107,1
2608292100,44.742275,-118.197685,0,11297,8,11,16.6,22,30,NA,27.3,21,2.7,223,11.7,0,Smoke RMK 410 (EBAM #787),EBAM,FALSE,NA,FALSE,FALSE,FALSE,FALSE,FALSE,FALSE,FALSE,FALSE,FALSE,2026-08-29T21:00:00Z,-118.197884,44.742107,1
2608292200,44.742275,-118.197685,768,11297,63334,5,15.8,22,29,NA,27.2,21,3,205,11.7,0,Smoke RMK 410 (EBAM #787),EBAM,TRUE,badType,FALSE,FALSE,TRUE,FALSE,FALSE,FALSE,FALSE,FALSE,FALSE,2026-08-29T22:00:00Z,-118.197884,44.742107,1
2608292300,44.742275,-118.197685,0,11297,50004,10,16.6,21.5,31,NA,25.9,23,1.6,317,11.7,0,Smoke RMK 410 (EBAM #787),EBAM,TRUE,badConcHr,FALSE,FALSE,FALSE,FALSE,FALSE,FALSE,TRUE,FALSE,FALSE,2026-08-29T23:00:00Z,-118.197884,44.742107,1
2608300000,44.742275,-118.197685,0,11297,7,3,16.6,20.3,31,NA,23.7,24,1.6,314,11.7,0,Smoke RMK 410 (EBAM #787),EBAM,FALSE,NA,FALSE,FALSE,FALSE,FALSE,FALSE,FALSE,FALSE,FALSE,FALSE,2026-08-30T00:00:00Z,-118.197884,44.742107,1
2608300100,44.742275,-118.197685,0,11297,7,6,16.6,19.6,29,NA,22.5,23,1.6,312,11.7,0,Smoke RMK 410 (EBAM #787),EBAM,FALSE,NA,FALSE,FALSE,FALSE,FALSE,FALSE,FALSE,FALSE,FALSE,FALSE,2026-08-30T01:00:00Z,-118.197884,44.742107,1
2608300200,44.742275,-118.197685,0,11297,2,7,16.6,18.2,31,NA,21.1,24,1.7,315,11.7,0,Smoke RMK 410 (EBAM #787),EBAM,FALSE,NA,FALSE,FALSE,FALSE,FALSE,FALSE,FALSE,FALSE,FALSE,FALSE,2026-08-30T02:00:00Z,-118.197884,44.742107,1
2608300300,44.742275,-118.197685,0,11297,7,8,16.6,16.1,35,NA,18.9,27,1.3,310,11.7,0,Smoke RMK 410 (EBAM #787),EBAM,FALSE,NA,FALSE,FALSE,FALSE,FALSE,FALSE,FALSE,FALSE,FALSE,FALSE,2026-08-30T03:00:00Z,-118.197884,44.742107,1
2608300400,44.742275,-118.197685,0,11297,18,42,16.6,14.4,42,NA,17,32,1.1,304,11.7,0,Smoke RMK 410 (EBAM #787),EBAM,FALSE,NA,FALSE,FALSE,FALSE,FALSE,FALSE,FALSE,FALSE,FALSE,FALSE,2026-08-30T04:00:00Z,-118.197884,44.742107,1
2608300500,44.742275,-118.197685,0,11297,44,49,16.6,12.8,48,NA,15.5,36,0.8,297,11.7,0,Smoke RMK 410 (EBAM #787),EBAM,FALSE,NA,FALSE,FALSE,FALSE,FALSE,FALSE,FALSE,FALSE,FALSE,FALSE,2026-08-30T05:00:00Z,-118.197884,44.742107,1
2608300600,44.742275,-118.197685,0,11297,44,46,16.6,10.9,54,NA,14.1,40,0.4,230,11.7,0,Smoke RMK 410 (EBAM #787),EBAM,FALSE,NA,FALSE,FALSE,FALSE,FALSE,FALSE,FALSE,FALSE,FALSE,FALSE,2026-08-30T06:00:00Z,-118.197884,44.742107,1
2608300700,44.742275,-118.197685,0,11297,44,44,16.6,9.4,58,NA,12.7,43,0.4,175,11.7,0,Smoke RMK 410 (EBAM #787),EBAM,FALSE,NA,FALSE,FALSE,FALSE,FALSE,FALSE,FALSE,FALSE,FALSE,FALSE,2026-08-30T07:00:00Z,-118.197884,44.742107,1
2608300800,44.742275,-118.197685,0,11297,42,40,16.6,8.5,61,NA,11.6,45,0.5,348,11.7,0,Smoke RMK 410 (EBAM #787),EBAM,FALSE,NA,FALSE,FALSE,FALSE,FALSE,FALSE,FALSE,FALSE,FALSE,FALSE,2026-08-30T08:00:00Z,-118.197884,44.742107,1
2608300900,44.742275,-118.197685,0,11297,37,34,16.6,7.8,64,NA,10.5,48,0.8,341,11.7,0,Smoke RMK 410 (EBAM #787),EBAM,FALSE,NA,FALSE,FALSE,FALSE,FALSE,FALSE,FALSE,FALSE,FALSE,FALSE,2026-08-30T09:00:00Z,-118.197884,44.742107,1
2608301000,44.742275,-118.197685,0,11297,39,51,16.6,7.1,66,NA,10.2,49,0.8,33,11.6,0,Smoke RMK 410 (EBAM #787),EBAM,FALSE,NA,FALSE,FALSE,FALSE,FALSE,FALSE,FALSE,FALSE,FALSE,FALSE,2026-08-30T10:00:00Z,-118.197884,44.742107,1
2608301100,44.742275,-118.197685,0,11297,44,45,16.6,5.7,71,NA,9.7,50,0.6,345,11.6,0,Smoke RMK 410 (EBAM #787),EBAM,FALSE,NA,FALSE,FALSE,FALSE,FALSE,FALSE,FALSE,FALSE,FALSE,FALSE,2026-08-30T11:00:00Z,-118.197884,44.742107,1
2608301200,44.742275,-118.197685,0,11297,47,55,16.6,4.6,74,NA,9.3,50,0.8,349,11.6,0,Smoke RMK 410 (EBAM #787),EBAM,FALSE,NA,FALSE,FALSE,FALSE,FALSE,FALSE,FALSE,FALSE,FALSE,FALSE,2026-08-30T12:00:00Z,-118.197884,44.742107,1
2608301300,44.742275,-118.197685,0,11297,55,69,16.6,4.2,76,NA,9.2,50,0.9,353,11.6,0,Smoke RMK 410 (EBAM #787),EBAM,FALSE,NA,FALSE,FALSE,FALSE,FALSE,FALSE,FALSE,FALSE,FALSE,FALSE,2026-08-30T13:00:00Z,-118.197884,44.742107,1
2608301400,44.742275,-118.197685,0,11297,70,82,16.6,3.5,78,NA,9.5,49,0.7,7,11.6,0,Smoke RMK 410 (EBAM #787),EBAM,FALSE,NA,FALSE,FALSE,FALSE,FALSE,FALSE,FALSE,FALSE,FALSE,FALSE,2026-08-30T14:00:00Z,-118.197884,44.742107,1
2608301500,44.742275,-118.197685,0,11297,111,161,16.6,4.5,75,NA,10.1,47,0.6,350,11.6,0,Smoke RMK 410 (EBAM #787),EBAM,FALSE,NA,FALSE,FALSE,FALSE,FALSE,FALSE,FALSE,FALSE,FALSE,FALSE,2026-08-30T15:00:00Z,-118.197884,44.742107,1
2608301600,44.742275,-118.197685,0,11297,130,93,16.6,8.7,63,NA,13.4,41,0.5,342,11.6,0,Smoke RMK 410 (EBAM #787),EBAM,FALSE,NA,FALSE,FALSE,FALSE,FALSE,FALSE,FALSE,FALSE,FALSE,FALSE,2026-08-30T16:00:00Z,-118.197884,44.742107,1
2608301700,44.742275,-118.197685,0,11297,74,92,16.6,12.9,49,NA,18.5,32,1,156,11.6,0,Smoke RMK 410 (EBAM #787),EBAM,FALSE,NA,FALSE,FALSE,FALSE,FALSE,FALSE,FALSE,FALSE,FALSE,FALSE,2026-08-30T17:00:00Z,-118.197884,44.742107,1
2608301800,44.742275,-118.197685,0,11297,94,106,16.6,15.4,40,NA,19.9,28,0.9,82,11.7,0,Smoke RMK 410 (EBAM #787),EBAM,FALSE,NA,FALSE,FALSE,FALSE,FALSE,FALSE,FALSE,FALSE,FALSE,FALSE,2026-08-30T18:00:00Z,-118.197884,44.742107,1
2608301900,44.742107,-118.197884,0,11297,83,52,16.6,17.2,39,NA,20.9,28,1.4,157,11.7,0,Smoke RMK 410 (EBAM #787),EBAM,FALSE,NA,FALSE,FALSE,FALSE,FALSE,FALSE,FALSE,FALSE,FALSE,FALSE,2026-08-30T19:00:00Z,-118.197884,44.742107,1
2608302000,44.742107,-118.197884,0,11297,32,17,16.6,19.8,33,NA,23.4,25,1.8,143,11.7,0,Smoke RMK 410 (EBAM #787),EBAM,FALSE,NA,FALSE,FALSE,FALSE,FALSE,FALSE,FALSE,FALSE,FALSE,FALSE,2026-08-30T20:00:00Z,-118.197884,44.742107,1
2608302100,44.742107,-118.197884,0,11297,9,3,16.6,22.2,28,NA,27.1,20,1.9,155,11.7,0,Smoke RMK 410 (EBAM #787),EBAM,FALSE,NA,FALSE,FALSE,FALSE,FALSE,FALSE,FALSE,FALSE,FALSE,FALSE,2026-08-30T21:00:00Z,-118.197884,44.742107,1
2608302200,44.742107,-118.197884,0,11297,8,3,16.6,23.1,26,NA,28.7,19,2.4,183,11.7,0,Smoke RMK 410 (EBAM #787),EBAM,FALSE,NA,FALSE,FALSE,FALSE,FALSE,FALSE,FALSE,FALSE,FALSE,FALSE,2026-08-30T22:00:00Z,-118.197884,44.742107,1
2608302300,44.742107,-118.197884,0,11297,1,5,16.6,23.7,24,NA,28.4,18,2.2,185,11.7,0,Smoke RMK 410 (EBAM #787),EBAM,FALSE,NA,FALSE,FALSE,FALSE,FALSE,FALSE,FALSE,FALSE,FALSE,FALSE,2026-08-30T23:00:00Z,-118.197884,44.742107,1
Smoke RMK 410 (EBAM #787), has 1 unique
location(s)EBAM monitorCurrently disabled.
Please contact Jonathan Callahan or Gina Wing if you have ideas for additional functionality.